createdAt,value
2022-12-27T00:01:41.059Z,71.11
2022-12-27T00:04:11.654Z,71.43
2022-12-27T00:06:42.669Z,71.42
2022-12-27T00:09:13.164Z,71.21
2022-12-27T00:11:43.604Z,71.50
2022-12-27T00:14:14.284Z,71.12
2022-12-27T00:16:44.752Z,71.34
2022-12-27T00:19:15.776Z,71.46
2022-12-27T00:21:46.238Z,71.06
2022-12-27T00:24:16.731Z,71.15
2022-12-27T00:26:47.213Z,71.08
2022-12-27T00:29:17.765Z,71.30
2022-12-27T00:31:48.329Z,71.33
2022-12-27T00:34:18.917Z,71.14
2022-12-27T00:36:49.575Z,71.67
2022-12-27T00:39:20.060Z,70.91
2022-12-27T00:41:50.522Z,70.94
2022-12-27T00:44:21.147Z,70.77
2022-12-27T00:46:51.692Z,70.73
2022-12-27T00:49:23.225Z,70.84
2022-12-27T00:51:53.692Z,70.75
2022-12-27T00:54:24.396Z,70.66
2022-12-27T00:56:54.826Z,70.37
2022-12-27T00:59:26.341Z,70.58
2022-12-27T01:01:56.967Z,70.56
2022-12-27T01:04:28.141Z,70.78
2022-12-27T01:06:58.604Z,70.50
2022-12-27T01:09:29.225Z,70.61
2022-12-27T01:11:59.658Z,70.64
2022-12-27T01:14:30.120Z,70.90
2022-12-27T01:17:00.609Z,70.85
2022-12-27T01:19:31.494Z,70.87
2022-12-27T01:22:01.938Z,70.86
2022-12-27T01:24:32.423Z,70.94
2022-12-27T01:27:03.176Z,71.13
2022-12-27T01:29:33.637Z,70.98
2022-12-27T01:32:04.360Z,71.38
2022-12-27T01:34:34.880Z,71.51
2022-12-27T01:37:05.857Z,72.01
2022-12-27T01:39:36.305Z,71.89
2022-12-27T01:42:25.763Z,72.12
2022-12-27T01:45:12.058Z,71.93
2022-12-27T01:47:50.446Z,72.07
2022-12-27T01:50:27.510Z,72.03
2022-12-27T01:53:03.816Z,71.84
2022-12-27T01:55:41.935Z,71.81
2022-12-27T01:58:15.887Z,71.33
2022-12-27T02:00:49.117Z,71.47
2022-12-27T02:03:24.782Z,71.40
2022-12-27T02:05:56.036Z,71.06
2022-12-27T02:08:50.521Z,71.09
2022-12-27T02:11:44.327Z,71.10
2022-12-27T02:14:16.988Z,71.21
2022-12-27T02:16:47.732Z,71.15
2022-12-27T02:19:25.913Z,71.30
2022-12-27T02:22:27.790Z,71.25
2022-12-27T02:25:12.454Z,71.36
2022-12-27T02:28:11.764Z,71.30
2022-12-27T02:30:45.309Z,71.41
2022-12-27T02:33:21.008Z,71.53
2022-12-27T02:35:59.520Z,71.81
2022-12-27T02:38:33.723Z,72.01
2022-12-27T02:41:25.289Z,71.74
2022-12-27T02:44:15.627Z,71.15
2022-12-27T02:47:04.899Z,70.91
2022-12-27T02:49:55.454Z,70.92
2022-12-27T02:53:02.610Z,70.90
2022-12-27T02:55:42.267Z,70.90
2022-12-27T02:58:33.088Z,70.94
2022-12-27T03:01:35.724Z,71.16
2022-12-27T03:04:22.800Z,71.37
2022-12-27T03:07:14.268Z,71.23
2022-12-27T03:10:14.413Z,71.28
2022-12-27T03:13:14.639Z,71.46
2022-12-27T03:15:59.138Z,71.79
2022-12-27T03:18:42.603Z,71.50
2022-12-27T03:21:32.913Z,71.54
2022-12-27T03:24:23.857Z,71.61
2022-12-27T03:26:55.785Z,71.39
2022-12-27T03:29:45.156Z,71.31
2022-12-27T03:32:35.556Z,71.40
2022-12-27T03:35:13.680Z,71.50
2022-12-27T03:38:06.043Z,71.73
2022-12-27T03:41:08.998Z,71.78
2022-12-27T03:43:41.516Z,72.01
2022-12-27T03:46:34.733Z,71.96
2022-12-27T03:49:21.911Z,71.89
2022-12-27T03:51:57.807Z,71.87
2022-12-27T03:54:32.767Z,71.80
2022-12-27T03:57:05.312Z,71.97
2022-12-27T03:59:36.053Z,71.75
2022-12-27T04:02:07.783Z,71.29
2022-12-27T04:04:39.053Z,71.55
2022-12-27T04:07:09.884Z,71.14
2022-12-27T04:09:58.255Z,71.47
2022-12-27T04:12:46.404Z,70.94
2022-12-27T04:15:34.817Z,71.11
2022-12-27T04:18:23.263Z,71.05
2022-12-27T04:21:11.401Z,71.08
2022-12-27T04:23:59.920Z,71.14
2022-12-27T04:26:47.980Z,70.78
2022-12-27T04:29:36.153Z,71.07
2022-12-27T04:32:24.614Z,70.91
2022-12-27T04:34:55.078Z,70.95
2022-12-27T04:37:25.526Z,70.63
2022-12-27T04:40:09.892Z,70.56
2022-12-27T04:42:58.199Z,70.32
2022-12-27T04:45:46.372Z,70.18
2022-12-27T04:48:35.596Z,70.12
2022-12-27T04:51:23.856Z,69.80
2022-12-27T04:54:12.036Z,69.34
2022-12-27T04:56:42.461Z,69.57
2022-12-27T04:59:42.325Z,69.51
2022-12-27T05:02:13.153Z,69.21
2022-12-27T05:04:44.275Z,68.99
2022-12-27T05:07:33.974Z,68.94
2022-12-27T05:10:25.025Z,68.65
2022-12-27T05:13:12.851Z,68.59
2022-12-27T05:15:43.297Z,68.85
2022-12-27T05:18:13.790Z,68.84
2022-12-27T05:20:44.265Z,68.80
2022-12-27T05:23:32.546Z,68.66
2022-12-27T05:26:03.709Z,68.38
2022-12-27T05:28:34.177Z,68.67
2022-12-27T05:31:04.998Z,68.46
2022-12-27T05:33:35.634Z,68.53
2022-12-27T05:36:07.177Z,68.79
2022-12-27T05:38:37.884Z,68.11
2022-12-27T05:41:08.684Z,68.55
2022-12-27T05:43:39.354Z,68.26
2022-12-27T05:46:12.056Z,68.65
2022-12-27T05:48:43.314Z,68.56
2022-12-27T05:51:16.671Z,68.62
2022-12-27T05:53:47.783Z,68.33
2022-12-27T05:56:21.733Z,68.20
2022-12-27T05:58:55.112Z,68.34
2022-12-27T06:01:25.630Z,68.14
2022-12-27T06:03:56.185Z,68.20
2022-12-27T06:06:26.651Z,68.19
2022-12-27T06:08:57.176Z,67.98
2022-12-27T06:11:28.041Z,67.98
2022-12-27T06:13:58.763Z,67.92
2022-12-27T06:16:29.559Z,67.86
2022-12-27T06:19:00.069Z,67.71
2022-12-27T06:21:30.584Z,67.94
2022-12-27T06:24:01.128Z,67.72
2022-12-27T06:26:32.333Z,68.17
2022-12-27T06:29:02.724Z,67.89
2022-12-27T06:31:33.188Z,67.82
2022-12-27T06:34:03.867Z,67.91
2022-12-27T06:36:34.495Z,67.88
2022-12-27T06:39:04.934Z,67.83
2022-12-27T06:41:35.384Z,67.91
2022-12-27T06:44:06.322Z,68.13
2022-12-27T06:46:36.825Z,68.01
2022-12-27T06:49:07.318Z,68.28
2022-12-27T06:51:37.723Z,68.05
2022-12-27T06:54:08.345Z,68.53
2022-12-27T06:56:38.831Z,68.35
2022-12-27T06:59:09.400Z,68.24
2022-12-27T07:01:39.932Z,68.45
2022-12-27T07:04:11.753Z,68.31
2022-12-27T07:06:42.392Z,68.80
2022-12-27T07:09:12.925Z,68.41
2022-12-27T07:11:43.374Z,68.13
2022-12-27T07:14:13.862Z,67.99
2022-12-27T07:16:44.370Z,68.13
2022-12-27T07:19:15.248Z,68.34
2022-12-27T07:21:45.727Z,68.38
2022-12-27T07:24:16.309Z,68.15
2022-12-27T07:26:46.769Z,68.14
2022-12-27T07:29:17.296Z,68.09
2022-12-27T07:31:48.263Z,67.91
2022-12-27T07:34:18.789Z,67.69
2022-12-27T07:36:49.581Z,67.76
2022-12-27T07:39:20.051Z,67.84
2022-12-27T07:41:50.937Z,67.57
2022-12-27T07:44:22.167Z,67.61
2022-12-27T07:46:52.718Z,67.79
2022-12-27T07:49:23.407Z,67.63
2022-12-27T07:51:53.845Z,67.33
2022-12-27T07:54:25.045Z,67.02
2022-12-27T07:56:55.444Z,67.10
2022-12-27T07:59:27.573Z,67.06
2022-12-27T08:02:07.627Z,66.88
2022-12-27T08:04:41.371Z,66.92
2022-12-27T08:07:17.747Z,66.88
2022-12-27T08:09:49.829Z,66.48
2022-12-27T08:12:20.361Z,66.77
2022-12-27T08:14:50.788Z,66.59
2022-12-27T08:17:24.569Z,66.78
2022-12-27T08:19:56.681Z,66.17
2022-12-27T08:22:27.108Z,66.32
2022-12-27T08:24:57.520Z,66.33
2022-12-27T08:27:28.038Z,66.03
2022-12-27T08:29:58.571Z,66.15
2022-12-27T08:32:29.094Z,65.95
2022-12-27T08:35:24.603Z,65.79
2022-12-27T08:37:50.214Z,65.49
2022-12-27T08:40:21.136Z,65.41
2022-12-27T08:42:51.572Z,65.10
2022-12-27T08:45:22.035Z,65.19
2022-12-27T08:47:52.923Z,64.65
2022-12-27T08:50:23.483Z,64.62
2022-12-27T08:52:53.964Z,64.48
2022-12-27T08:55:24.387Z,64.75
2022-12-27T08:57:59.156Z,64.62
2022-12-27T09:00:30.709Z,64.58
2022-12-27T09:03:01.484Z,64.48
2022-12-27T09:05:36.595Z,63.94
2022-12-27T09:08:10.189Z,64.36
2022-12-27T09:10:40.645Z,64.29
2022-12-27T09:13:11.103Z,64.13
2022-12-27T09:15:48.978Z,64.10
2022-12-27T09:18:19.482Z,63.65
2022-12-27T09:20:49.919Z,63.93
2022-12-27T09:23:20.537Z,63.71
2022-12-27T09:25:50.969Z,63.28
2022-12-27T09:28:22.337Z,62.82
2022-12-27T09:30:52.851Z,62.90
2022-12-27T09:33:23.455Z,62.56
2022-12-27T09:35:54.001Z,62.26
2022-12-27T09:38:24.425Z,62.28
2022-12-27T09:40:56.674Z,62.26
2022-12-27T09:43:36.647Z,62.03
2022-12-27T09:46:12.852Z,62.13
2022-12-27T09:48:43.428Z,61.99
2022-12-27T09:51:19.500Z,61.77
2022-12-27T09:53:58.323Z,61.85
2022-12-27T09:56:54.609Z,61.54
2022-12-27T09:59:29.026Z,61.43
2022-12-27T10:01:59.959Z,61.40
2022-12-27T10:05:10.028Z,61.37
2022-12-27T10:07:38.584Z,61.24
2022-12-27T10:10:19.963Z,61.17
2022-12-27T10:13:19.559Z,61.55
2022-12-27T10:15:58.722Z,61.38
2022-12-27T10:18:41.368Z,60.90
2022-12-27T10:21:19.810Z,61.14
2022-12-27T10:23:54.513Z,60.94
2022-12-27T10:26:25.296Z,60.98
2022-12-27T10:29:00.329Z,60.88
2022-12-27T10:31:32.010Z,60.52
2022-12-27T10:34:06.280Z,60.58
2022-12-27T10:36:44.014Z,60.61
2022-12-27T10:39:19.828Z,60.37
2022-12-27T10:42:01.253Z,60.43
2022-12-27T10:44:32.085Z,60.23
2022-12-27T10:47:03.099Z,60.20
2022-12-27T10:49:35.578Z,60.01
2022-12-27T10:52:17.782Z,59.78
2022-12-27T10:54:55.410Z,59.71
2022-12-27T10:57:30.816Z,59.57
2022-12-27T11:00:18.212Z,59.37
2022-12-27T11:02:57.031Z,59.13
2022-12-27T11:05:27.125Z,58.98
2022-12-27T11:07:57.933Z,59.02
2022-12-27T11:10:31.692Z,58.99
2022-12-27T11:13:03.897Z,58.81
2022-12-27T11:15:37.296Z,58.68
2022-12-27T11:18:17.759Z,58.71
2022-12-27T11:20:51.481Z,58.58
2022-12-27T11:23:25.059Z,58.54
2022-12-27T11:25:57.544Z,58.26
2022-12-27T11:28:34.542Z,58.19
2022-12-27T11:31:08.204Z,58.06
2022-12-27T11:33:41.217Z,57.99
2022-12-27T11:36:14.624Z,58.03
2022-12-27T11:38:50.680Z,57.63
2022-12-27T11:41:29.805Z,57.49
2022-12-27T11:44:04.859Z,57.51
2022-12-27T11:46:43.619Z,57.37
2022-12-27T11:49:22.506Z,57.21
2022-12-27T11:52:29.262Z,57.08
2022-12-27T11:55:17.106Z,56.78
2022-12-27T11:58:15.490Z,56.68
2022-12-27T12:00:55.647Z,56.81
2022-12-27T12:04:00.986Z,56.31
2022-12-27T12:06:46.363Z,56.23
2022-12-27T12:09:31.531Z,56.11
2022-12-27T12:12:23.485Z,55.39
2022-12-27T12:15:24.718Z,55.24
2022-12-27T12:18:14.323Z,55.36
2022-12-27T12:21:17.598Z,55.08
2022-12-27T12:24:09.118Z,55.12
2022-12-27T12:26:55.562Z,54.86
2022-12-27T12:29:57.578Z,55.05
2022-12-27T12:32:46.949Z,54.89
2022-12-27T12:35:37.559Z,55.12
2022-12-27T12:38:20.779Z,55.38
2022-12-27T12:41:25.460Z,55.02
2022-12-27T12:44:21.306Z,55.21
2022-12-27T12:47:02.321Z,55.21
2022-12-27T12:49:51.618Z,55.26
2022-12-27T12:52:43.812Z,55.39
2022-12-27T12:55:38.468Z,55.56
2022-12-27T12:58:25.526Z,55.61
2022-12-27T13:01:14.244Z,55.79
2022-12-27T13:04:04.492Z,55.64
2022-12-27T13:07:07.890Z,55.67
2022-12-27T13:09:56.550Z,55.75
2022-12-27T13:12:33.216Z,55.72
2022-12-27T13:15:24.834Z,55.47
2022-12-27T13:18:06.937Z,55.67
2022-12-27T13:20:51.685Z,55.62
2022-12-27T13:23:33.640Z,55.45
2022-12-27T13:26:15.900Z,55.70
2022-12-27T13:29:02.221Z,55.96
2022-12-27T13:31:45.175Z,55.90
2022-12-27T13:34:35.207Z,56.04
2022-12-27T13:37:25.641Z,56.39
2022-12-27T13:40:15.968Z,56.54
2022-12-27T13:43:07.316Z,56.53
2022-12-27T13:45:52.833Z,56.79
2022-12-27T13:48:51.603Z,56.96
2022-12-27T13:51:42.303Z,57.00
2022-12-27T13:55:06.823Z,57.23
2022-12-27T13:58:14.978Z,57.26
2022-12-27T14:00:54.939Z,57.37
2022-12-27T14:03:56.082Z,57.35
2022-12-27T14:06:53.791Z,57.48
2022-12-27T14:09:57.285Z,57.54
2022-12-27T14:12:56.121Z,57.83
2022-12-27T14:15:33.094Z,57.65
2022-12-27T14:18:26.536Z,57.85
2022-12-27T14:21:11.682Z,57.89
2022-12-27T14:23:59.217Z,57.92
2022-12-27T14:26:57.889Z,58.34
2022-12-27T14:30:06.190Z,58.37
2022-12-27T14:33:18.767Z,58.20
2022-12-27T14:36:23.338Z,58.28
2022-12-27T14:39:39.599Z,58.35
2022-12-27T14:42:37.347Z,58.51
2022-12-27T14:45:45.761Z,58.73
2022-12-27T14:48:52.253Z,58.62
2022-12-27T14:52:00.833Z,58.99
2022-12-27T14:54:59.533Z,58.75
2022-12-27T14:57:40.283Z,58.81
2022-12-27T15:00:18.346Z,58.94
2022-12-27T15:03:17.976Z,59.12
2022-12-27T15:05:59.543Z,58.97
2022-12-27T15:08:52.934Z,59.01
2022-12-27T15:11:36.926Z,59.03
2022-12-27T15:14:24.661Z,59.22
2022-12-27T15:17:06.073Z,59.30
2022-12-27T15:19:52.848Z,59.37
2022-12-27T15:22:36.501Z,59.54
2022-12-27T15:25:20.596Z,59.44
2022-12-27T15:27:59.151Z,59.71
2022-12-27T15:30:46.968Z,60.01
2022-12-27T15:33:25.212Z,60.00
2022-12-27T15:36:01.529Z,60.23
2022-12-27T15:38:54.769Z,60.65
2022-12-27T15:41:49.208Z,60.47
2022-12-27T15:44:49.662Z,60.45
2022-12-27T15:47:51.192Z,60.75
2022-12-27T15:50:35.694Z,60.95
2022-12-27T15:53:17.952Z,60.75
2022-12-27T15:56:14.378Z,60.67
2022-12-27T15:58:46.182Z,60.70
2022-12-27T16:01:29.610Z,60.84
2022-12-27T16:04:21.029Z,60.70
2022-12-27T16:06:52.260Z,60.46
2022-12-27T16:09:36.727Z,60.39
2022-12-27T16:12:13.678Z,60.35
2022-12-27T16:14:45.875Z,60.91
2022-12-27T16:17:34.429Z,60.91
2022-12-27T16:20:18.413Z,61.05
2022-12-27T16:22:54.757Z,60.77
2022-12-27T16:25:32.031Z,60.76
2022-12-27T16:28:10.447Z,61.13
2022-12-27T16:30:46.299Z,60.81
2022-12-27T16:33:37.834Z,60.95
2022-12-27T16:36:21.269Z,61.31
2022-12-27T16:39:03.783Z,61.00
2022-12-27T16:42:01.034Z,60.95
2022-12-27T16:44:49.273Z,61.11
2022-12-27T16:48:05.563Z,61.45
2022-12-27T16:50:52.995Z,61.62
2022-12-27T16:53:44.314Z,61.38
2022-12-27T16:56:20.941Z,61.20
2022-12-27T16:58:52.128Z,61.33
2022-12-27T17:01:46.694Z,61.19
2022-12-27T17:04:48.279Z,61.27
2022-12-27T17:07:48.581Z,61.17
2022-12-27T17:10:44.745Z,61.18
2022-12-27T17:13:19.368Z,60.87
2022-12-27T17:15:56.971Z,61.17
2022-12-27T17:18:31.775Z,61.22
2022-12-27T17:21:08.078Z,61.18
2022-12-27T17:23:44.916Z,60.89
2022-12-27T17:26:51.407Z,61.08
2022-12-27T17:29:39.035Z,61.08
2022-12-27T17:32:20.053Z,60.92
2022-12-27T17:35:00.724Z,60.88
2022-12-27T17:37:40.585Z,60.96
2022-12-27T17:40:28.613Z,61.15
2022-12-27T17:43:30.533Z,61.08
2022-12-27T17:46:18.850Z,60.91
2022-12-27T17:48:49.866Z,60.94
2022-12-27T17:51:25.579Z,60.97
2022-12-27T17:54:15.101Z,61.03
2022-12-27T17:57:05.548Z,61.10
2022-12-27T17:59:42.665Z,61.14
2022-12-27T18:02:18.079Z,60.89
2022-12-27T18:04:52.050Z,61.24
2022-12-27T18:07:28.506Z,61.34
2022-12-27T18:10:02.708Z,61.18
2022-12-27T18:12:37.500Z,61.24
2022-12-27T18:15:14.133Z,61.52
2022-12-27T18:17:48.701Z,61.64
2022-12-27T18:20:33.469Z,61.50
2022-12-27T18:23:17.215Z,61.60
2022-12-27T18:26:13.484Z,61.94
2022-12-27T18:28:44.889Z,61.69
2022-12-27T18:31:21.506Z,61.59
2022-12-27T18:34:23.402Z,61.78
2022-12-27T18:37:01.801Z,61.69
2022-12-27T18:39:35.040Z,62.13
2022-12-27T18:42:13.771Z,61.84
2022-12-27T18:44:48.207Z,61.57
2022-12-27T18:47:27.328Z,62.17
2022-12-27T18:50:01.392Z,62.12
2022-12-27T18:52:37.608Z,61.96
2022-12-27T18:55:20.772Z,61.71
2022-12-27T18:58:02.088Z,62.29
2022-12-27T19:00:33.032Z,61.99
2022-12-27T19:03:17.814Z,62.36
2022-12-27T19:06:04.123Z,62.41
2022-12-27T19:08:40.912Z,62.40
2022-12-27T19:11:22.054Z,62.49
2022-12-27T19:13:55.245Z,62.21
2022-12-27T19:16:29.469Z,62.39
2022-12-27T19:19:04.495Z,62.66
2022-12-27T19:21:38.253Z,62.88
2022-12-27T19:24:34.952Z,62.57
2022-12-27T19:27:24.168Z,62.66
2022-12-27T19:29:55.385Z,62.68
2022-12-27T19:32:33.385Z,62.64
2022-12-27T19:35:05.324Z,62.89
2022-12-27T19:37:35.889Z,62.59
2022-12-27T19:40:08.631Z,62.44
2022-12-27T19:42:40.596Z,62.81
2022-12-27T19:45:14.642Z,62.57
2022-12-27T19:47:45.139Z,62.83
2022-12-27T19:50:16.003Z,62.93
2022-12-27T19:52:50.715Z,62.77
2022-12-27T19:55:25.341Z,62.40
2022-12-27T19:57:56.171Z,62.52
2022-12-27T20:00:26.779Z,62.75
2022-12-27T20:02:57.451Z,62.33
2022-12-27T20:06:11.782Z,62.42
2022-12-27T20:08:28.276Z,62.47
2022-12-27T20:11:00.338Z,62.12
2022-12-27T20:13:31.250Z,62.32
2022-12-27T20:16:02.648Z,62.38
2022-12-27T20:18:33.111Z,62.41
2022-12-27T20:21:03.564Z,62.10
2022-12-27T20:23:34.097Z,62.10
2022-12-27T20:26:04.657Z,61.64
2022-12-27T20:28:35.623Z,61.85
2022-12-27T20:31:10.278Z,61.48
2022-12-27T20:33:41.068Z,61.83
2022-12-27T20:36:12.614Z,61.25
2022-12-27T20:38:43.114Z,61.34
2022-12-27T20:41:15.824Z,61.35
2022-12-27T20:43:46.366Z,61.48
2022-12-27T20:46:19.073Z,61.37
2022-12-27T20:48:49.782Z,61.64
2022-12-27T20:51:22.167Z,61.98
2022-12-27T20:53:54.655Z,61.55
2022-12-27T20:56:25.669Z,61.89
2022-12-27T20:58:56.412Z,62.10
2022-12-27T21:01:27.943Z,62.00
2022-12-27T21:03:58.863Z,62.06
2022-12-27T21:06:30.769Z,62.31
2022-12-27T21:09:01.463Z,62.24
2022-12-27T21:11:33.268Z,62.05
2022-12-27T21:14:05.123Z,62.32
2022-12-27T21:16:38.632Z,62.43
2022-12-27T21:19:09.463Z,62.50
2022-12-27T21:21:40.897Z,62.54
2022-12-27T21:24:12.657Z,62.66
2022-12-27T21:26:44.222Z,62.72
2022-12-27T21:29:16.456Z,62.66
2022-12-27T21:31:47.455Z,62.69
2022-12-27T21:34:17.893Z,62.81
2022-12-27T21:36:51.162Z,63.08
2022-12-27T21:39:21.714Z,62.85
2022-12-27T21:41:52.296Z,62.90
2022-12-27T21:44:25.431Z,62.81
2022-12-27T21:46:55.995Z,63.03
2022-12-27T21:49:26.443Z,62.83
2022-12-27T21:51:56.979Z,62.82
2022-12-27T21:54:27.476Z,62.92
2022-12-27T21:56:58.037Z,62.81
2022-12-27T21:59:29.341Z,62.85
2022-12-27T22:01:59.848Z,63.16
2022-12-27T22:04:30.400Z,62.97
2022-12-27T22:07:00.971Z,62.95
2022-12-27T22:09:31.423Z,63.16
2022-12-27T22:12:01.842Z,63.07
2022-12-27T22:14:36.829Z,63.61
2022-12-27T22:17:07.764Z,63.64
2022-12-27T22:19:38.229Z,63.97
2022-12-27T22:22:08.687Z,63.79
2022-12-27T22:24:39.122Z,64.00
2022-12-27T22:27:09.605Z,64.01
2022-12-27T22:29:40.083Z,64.06
2022-12-27T22:32:10.579Z,64.12
2022-12-27T22:34:41.116Z,64.12
2022-12-27T22:37:11.593Z,64.29
2022-12-27T22:39:42.156Z,64.27
2022-12-27T22:42:12.593Z,64.19
2022-12-27T22:44:43.798Z,64.35
2022-12-27T22:47:29.567Z,64.28
2022-12-27T22:50:00.142Z,63.95
2022-12-27T22:52:30.635Z,63.87
2022-12-27T22:55:05.590Z,63.93
2022-12-27T22:57:37.556Z,63.96
2022-12-27T23:00:12.634Z,63.54
2022-12-27T23:02:43.325Z,63.62
2022-12-27T23:05:14.072Z,63.43
2022-12-27T23:08:03.430Z,63.41
2022-12-27T23:10:35.580Z,63.60
2022-12-27T23:13:06.138Z,63.57
2022-12-27T23:15:36.686Z,63.54
2022-12-27T23:18:07.621Z,63.59
2022-12-27T23:20:38.075Z,63.49
2022-12-27T23:23:28.855Z,63.52
2022-12-27T23:26:04.504Z,63.19
2022-12-27T23:28:37.995Z,63.42
2022-12-27T23:31:10.699Z,63.61
2022-12-27T23:33:42.249Z,63.19
2022-12-27T23:36:14.209Z,63.40
2022-12-27T23:38:45.444Z,63.56
2022-12-27T23:41:18.600Z,63.49
2022-12-27T23:43:52.734Z,63.21
2022-12-27T23:46:27.466Z,63.48
2022-12-27T23:48:59.365Z,63.57
2022-12-27T23:51:30.885Z,63.64
2022-12-27T23:54:01.854Z,63.58
2022-12-27T23:56:34.706Z,63.51
2022-12-27T23:59:07.509Z,63.43
